Ana Sayfa
METAR-TAF:

METAR-TAF

Havaalanları :

Atina Elefterios Venizelos Uluslararası Havalimanı

Atina, Yunanistan

Enlem: 37-56N, Boylam: 023-56E, yükseklik: 94 m

Güncel hava durumu gözlemi

Rapor saat 23:50 UTC de 23 dakika önce yapıldı.
Rüzgar kuzeydan 7 kt
Sıcaklık 26°C
Nem 48%
Basınç 1011 hPa
Görüş mesafesi 10 km veya daha fazla
1500 m altında bulut yok ve kümülonimbus yok

METAR: LGAV 202350Z 35007KT CAVOK 26/14 Q1011 NOSIG

Saat: 03:13 (00:13 UTC)

Tahmin

Rapor saat 23:00 UTC de 1 saat ve 13 dakika önce yapıldı.
Ayın 21'si saat 00 UTC'den ayın 21'si saat 24 UTC'ye kadar geçerli Tahmin
Rüzgar kuzeydan 15 kt
Görüş mesafesi 10 km veya daha fazla
2500 ft yükseklikte az bulutlu
Geçici
ayın 21'si saat 06 UTC'den ayın 21'si saat 16 UTC'ye kadar
Rüzgar kuzeydan 20 kt ve 30 kt'a kadar ani rüzgarlar

TAF: LGAV 202300Z 2100/2124 36015KT 9999 FEW025 TEMPO 2106/2116 36020G30KT

4.000'den fazla havaalanı için hava durumu gözlemleri ve tahminleri (METAR ve TAF raporları).

Kullanılabilir istasyonlar harita üzerinde sarı ve kırmızı noktalarla gösterilir.

İstasyonun adını görmek için fareyi noktanın üzerinde gezdirin.

Sonrasında hava gözlem ve tahminlerini görmek için tıklayın.

Haritayı değiştirmek için: yaklaştırmak için siyah artı işaretli yeşil düğmeye ve uzaklaştırmak için de eksi işaretli düğmeye hızla tıklayın; bitişik haritalar için yeşil okları kullanın.


METAR-TAF: